National Weather Service Raw Text Product

Displaying AFOS PIL: TAFALO Received: 2017-12-07 17:21 UTC


274 
FTUS43 KDMX 071721
TAFALO
TAF
KALO 071721Z 0718/0818 29010KT P6SM FEW250
     FM080900 24005KT P6SM BKN080
     FM081200 26005KT P6SM BKN025
     FM081600 27005KT P6SM BKN035=